sensor_id;sensor_type;location;lat;lon;timestamp;P1;durP1;ratioP1;P2;durP2;ratioP2
38937;SDS011;24727;51.974;20.868;2024-01-27T00:01:34;8.50;;;4.30;;
38937;SDS011;24727;51.974;20.868;2024-01-27T00:04:00;7.35;;;3.35;;
38937;SDS011;24727;51.974;20.868;2024-01-27T00:06:26;4.88;;;2.92;;
38937;SDS011;24727;51.974;20.868;2024-01-27T00:08:52;8.38;;;3.38;;
38937;SDS011;24727;51.974;20.868;2024-01-27T00:11:18;4.30;;;2.63;;
38937;SDS011;24727;51.974;20.868;2024-01-27T00:13:44;8.18;;;3.22;;
38937;SDS011;24727;51.974;20.868;2024-01-27T00:16:11;4.65;;;2.40;;
38937;SDS011;24727;51.974;20.868;2024-01-27T00:18:37;3.90;;;2.20;;
38937;SDS011;24727;51.974;20.868;2024-01-27T00:21:04;5.20;;;2.00;;
38937;SDS011;24727;51.974;20.868;2024-01-27T00:23:31;5.28;;;1.77;;
38937;SDS011;24727;51.974;20.868;2024-01-27T00:25:57;5.25;;;1.50;;
38937;SDS011;24727;51.974;20.868;2024-01-27T00:28:23;6.03;;;1.63;;
38937;SDS011;24727;51.974;20.868;2024-01-27T00:30:49;3.00;;;1.02;;
38937;SDS011;24727;51.974;20.868;2024-01-27T00:33:15;6.38;;;1.58;;
38937;SDS011;24727;51.974;20.868;2024-01-27T00:35:41;8.90;;;2.35;;
38937;SDS011;24727;51.974;20.868;2024-01-27T00:38:07;6.05;;;1.00;;
38937;SDS011;24727;51.974;20.868;2024-01-27T00:40:33;4.32;;;1.83;;
38937;SDS011;24727;51.974;20.868;2024-01-27T00:42:59;4.20;;;1.38;;
38937;SDS011;24727;51.974;20.868;2024-01-27T00:45:27;5.30;;;1.20;;
38937;SDS011;24727;51.974;20.868;2024-01-27T00:47:53;10.20;;;3.30;;
38937;SDS011;24727;51.974;20.868;2024-01-27T00:50:19;5.72;;;1.65;;
38937;SDS011;24727;51.974;20.868;2024-01-27T00:52:45;6.63;;;1.42;;
38937;SDS011;24727;51.974;20.868;2024-01-27T00:55:11;7.45;;;2.28;;
38937;SDS011;24727;51.974;20.868;2024-01-27T00:57:36;7.05;;;1.95;;
38937;SDS011;24727;51.974;20.868;2024-01-27T01:00:06;6.03;;;1.83;;
38937;SDS011;24727;51.974;20.868;2024-01-27T01:02:32;5.82;;;1.58;;
38937;SDS011;24727;51.974;20.868;2024-01-27T01:04:59;10.02;;;1.77;;
38937;SDS011;24727;51.974;20.868;2024-01-27T01:07:24;6.75;;;1.77;;
38937;SDS011;24727;51.974;20.868;2024-01-27T01:09:50;9.93;;;2.17;;
38937;SDS011;24727;51.974;20.868;2024-01-27T01:12:16;10.88;;;2.47;;
38937;SDS011;24727;51.974;20.868;2024-01-27T01:14:45;8.98;;;2.03;;
38937;SDS011;24727;51.974;20.868;2024-01-27T01:17:12;10.18;;;2.40;;
38937;SDS011;24727;51.974;20.868;2024-01-27T01:19:38;8.70;;;2.45;;
38937;SDS011;24727;51.974;20.868;2024-01-27T01:22:05;11.48;;;2.88;;
38937;SDS011;24727;51.974;20.868;2024-01-27T01:24:32;10.68;;;2.63;;
38937;SDS011;24727;51.974;20.868;2024-01-27T01:26:58;10.32;;;3.00;;
38937;SDS011;24727;51.974;20.868;2024-01-27T01:29:24;12.30;;;2.00;;
38937;SDS011;24727;51.974;20.868;2024-01-27T01:31:50;11.82;;;2.17;;
38937;SDS011;24727;51.974;20.868;2024-01-27T01:34:17;10.20;;;1.70;;
38937;SDS011;24727;51.974;20.868;2024-01-27T01:36:43;9.63;;;1.30;;
38937;SDS011;24727;51.974;20.868;2024-01-27T01:39:09;7.40;;;1.90;;
38937;SDS011;24727;51.974;20.868;2024-01-27T01:41:36;10.00;;;1.95;;
38937;SDS011;24727;51.974;20.868;2024-01-27T01:44:02;8.60;;;1.60;;
38937;SDS011;24727;51.974;20.868;2024-01-27T01:46:28;9.98;;;1.77;;
38937;SDS011;24727;51.974;20.868;2024-01-27T01:48:54;9.35;;;1.55;;
38937;SDS011;24727;51.974;20.868;2024-01-27T01:51:20;10.77;;;1.50;;
38937;SDS011;24727;51.974;20.868;2024-01-27T01:53:47;10.68;;;1.70;;
38937;SDS011;24727;51.974;20.868;2024-01-27T01:56:15;10.55;;;2.03;;
38937;SDS011;24727;51.974;20.868;2024-01-27T01:58:41;7.28;;;1.55;;
38937;SDS011;24727;51.974;20.868;2024-01-27T02:01:07;12.70;;;2.65;;
38937;SDS011;24727;51.974;20.868;2024-01-27T02:03:33;16.33;;;2.72;;
38937;SDS011;24727;51.974;20.868;2024-01-27T02:05:59;11.45;;;2.20;;
38937;SDS011;24727;51.974;20.868;2024-01-27T02:08:25;13.18;;;3.80;;
38937;SDS011;24727;51.974;20.868;2024-01-27T02:10:51;14.30;;;2.80;;
38937;SDS011;24727;51.974;20.868;2024-01-27T02:13:20;15.07;;;3.13;;
38937;SDS011;24727;51.974;20.868;2024-01-27T02:15:47;10.60;;;2.28;;
38937;SDS011;24727;51.974;20.868;2024-01-27T02:18:14;9.27;;;1.95;;
38937;SDS011;24727;51.974;20.868;2024-01-27T02:20:40;15.57;;;4.13;;
38937;SDS011;24727;51.974;20.868;2024-01-27T02:23:06;12.77;;;2.67;;
38937;SDS011;24727;51.974;20.868;2024-01-27T02:25:33;7.57;;;1.40;;
38937;SDS011;24727;51.974;20.868;2024-01-27T02:28:00;11.65;;;2.97;;
38937;SDS011;24727;51.974;20.868;2024-01-27T02:30:30;12.63;;;3.17;;
38937;SDS011;24727;51.974;20.868;2024-01-27T02:32:56;17.00;;;2.75;;
38937;SDS011;24727;51.974;20.868;2024-01-27T02:35:23;21.00;;;3.40;;
38937;SDS011;24727;51.974;20.868;2024-01-27T02:37:49;12.95;;;2.90;;
38937;SDS011;24727;51.974;20.868;2024-01-27T02:40:15;13.52;;;2.47;;
38937;SDS011;24727;51.974;20.868;2024-01-27T02:42:41;15.23;;;2.70;;
38937;SDS011;24727;51.974;20.868;2024-01-27T02:45:08;14.02;;;3.22;;
38937;SDS011;24727;51.974;20.868;2024-01-27T02:47:34;10.35;;;2.13;;
38937;SDS011;24727;51.974;20.868;2024-01-27T02:50:00;13.63;;;2.63;;
38937;SDS011;24727;51.974;20.868;2024-01-27T02:52:26;18.75;;;3.10;;
38937;SDS011;24727;51.974;20.868;2024-01-27T02:54:52;8.82;;;2.03;;
38937;SDS011;24727;51.974;20.868;2024-01-27T02:57:18;10.45;;;2.20;;
38937;SDS011;24727;51.974;20.868;2024-01-27T02:59:48;13.82;;;2.65;;
38937;SDS011;24727;51.974;20.868;2024-01-27T03:02:14;12.52;;;2.95;;
38937;SDS011;24727;51.974;20.868;2024-01-27T03:04:41;12.50;;;3.17;;
38937;SDS011;24727;51.974;20.868;2024-01-27T03:07:07;12.98;;;2.67;;
38937;SDS011;24727;51.974;20.868;2024-01-27T03:09:33;10.85;;;2.47;;
38937;SDS011;24727;51.974;20.868;2024-01-27T03:11:58;16.80;;;2.42;;
38937;SDS011;24727;51.974;20.868;2024-01-27T03:14:24;13.50;;;3.13;;
38937;SDS011;24727;51.974;20.868;2024-01-27T03:16:50;10.52;;;2.40;;
38937;SDS011;24727;51.974;20.868;2024-01-27T03:19:16;13.90;;;2.85;;
38937;SDS011;24727;51.974;20.868;2024-01-27T03:21:42;9.05;;;2.45;;
38937;SDS011;24727;51.974;20.868;2024-01-27T03:24:08;12.85;;;2.35;;
38937;SDS011;24727;51.974;20.868;2024-01-27T03:26:33;10.55;;;2.90;;
38937;SDS011;24727;51.974;20.868;2024-01-27T03:28:59;14.27;;;3.88;;
38937;SDS011;24727;51.974;20.868;2024-01-27T03:31:32;10.77;;;2.10;;
38937;SDS011;24727;51.974;20.868;2024-01-27T03:33:59;12.40;;;2.30;;
38937;SDS011;24727;51.974;20.868;2024-01-27T03:36:25;11.38;;;3.00;;
38937;SDS011;24727;51.974;20.868;2024-01-27T03:38:51;10.32;;;2.75;;
38937;SDS011;24727;51.974;20.868;2024-01-27T03:41:18;8.43;;;2.55;;
38937;SDS011;24727;51.974;20.868;2024-01-27T03:43:43;13.00;;;2.22;;
38937;SDS011;24727;51.974;20.868;2024-01-27T03:46:09;9.70;;;2.45;;
38937;SDS011;24727;51.974;20.868;2024-01-27T03:48:35;17.30;;;3.72;;
38937;SDS011;24727;51.974;20.868;2024-01-27T03:51:01;12.98;;;2.55;;
38937;SDS011;24727;51.974;20.868;2024-01-27T03:53:27;8.85;;;2.30;;
38937;SDS011;24727;51.974;20.868;2024-01-27T03:55:53;10.63;;;2.15;;
38937;SDS011;24727;51.974;20.868;2024-01-27T03:58:19;15.32;;;2.65;;
38937;SDS011;24727;51.974;20.868;2024-01-27T04:00:45;10.63;;;3.97;;
38937;SDS011;24727;51.974;20.868;2024-01-27T04:03:11;13.85;;;2.97;;
38937;SDS011;24727;51.974;20.868;2024-01-27T04:05:37;10.40;;;2.08;;
38937;SDS011;24727;51.974;20.868;2024-01-27T04:08:04;20.58;;;3.40;;
38937;SDS011;24727;51.974;20.868;2024-01-27T04:10:31;8.98;;;2.17;;
38937;SDS011;24727;51.974;20.868;2024-01-27T04:12:57;13.45;;;2.08;;
38937;SDS011;24727;51.974;20.868;2024-01-27T04:15:23;13.55;;;3.08;;
38937;SDS011;24727;51.974;20.868;2024-01-27T04:17:49;8.60;;;1.88;;
38937;SDS011;24727;51.974;20.868;2024-01-27T04:20:14;13.57;;;2.03;;
38937;SDS011;24727;51.974;20.868;2024-01-27T04:22:40;6.07;;;2.25;;
38937;SDS011;24727;51.974;20.868;2024-01-27T04:25:07;5.85;;;1.73;;
38937;SDS011;24727;51.974;20.868;2024-01-27T04:27:36;10.43;;;2.38;;
38937;SDS011;24727;51.974;20.868;2024-01-27T04:30:05;15.40;;;2.80;;
38937;SDS011;24727;51.974;20.868;2024-01-27T04:32:31;14.43;;;2.88;;
38937;SDS011;24727;51.974;20.868;2024-01-27T04:34:57;13.43;;;2.95;;
38937;SDS011;24727;51.974;20.868;2024-01-27T04:37:23;9.80;;;2.63;;
38937;SDS011;24727;51.974;20.868;2024-01-27T04:39:49;12.55;;;3.03;;
38937;SDS011;24727;51.974;20.868;2024-01-27T04:42:15;9.85;;;2.78;;
38937;SDS011;24727;51.974;20.868;2024-01-27T04:44:41;8.30;;;2.35;;
38937;SDS011;24727;51.974;20.868;2024-01-27T04:47:07;13.50;;;2.80;;
38937;SDS011;24727;51.974;20.868;2024-01-27T04:49:33;10.05;;;2.33;;
38937;SDS011;24727;51.974;20.868;2024-01-27T04:51:59;10.45;;;2.70;;
38937;SDS011;24727;51.974;20.868;2024-01-27T04:54:25;10.30;;;2.63;;
38937;SDS011;24727;51.974;20.868;2024-01-27T04:56:51;16.02;;;3.15;;
38937;SDS011;24727;51.974;20.868;2024-01-27T04:59:17;16.17;;;3.13;;
38937;SDS011;24727;51.974;20.868;2024-01-27T05:01:46;10.70;;;2.33;;
38937;SDS011;24727;51.974;20.868;2024-01-27T05:04:12;10.98;;;2.58;;
38937;SDS011;24727;51.974;20.868;2024-01-27T05:06:38;12.55;;;2.20;;
38937;SDS011;24727;51.974;20.868;2024-01-27T05:09:09;6.72;;;1.75;;
38937;SDS011;24727;51.974;20.868;2024-01-27T05:11:35;13.75;;;2.80;;
38937;SDS011;24727;51.974;20.868;2024-01-27T05:14:00;15.20;;;2.60;;
38937;SDS011;24727;51.974;20.868;2024-01-27T05:16:27;16.17;;;2.50;;
38937;SDS011;24727;51.974;20.868;2024-01-27T05:18:53;11.38;;;2.38;;
38937;SDS011;24727;51.974;20.868;2024-01-27T05:21:19;12.27;;;2.33;;
38937;SDS011;24727;51.974;20.868;2024-01-27T05:23:45;11.63;;;3.05;;
38937;SDS011;24727;51.974;20.868;2024-01-27T05:26:11;13.55;;;2.22;;
38937;SDS011;24727;51.974;20.868;2024-01-27T05:28:37;14.27;;;3.10;;
38937;SDS011;24727;51.974;20.868;2024-01-27T05:31:07;13.07;;;2.30;;
38937;SDS011;24727;51.974;20.868;2024-01-27T05:33:35;16.42;;;2.72;;
38937;SDS011;24727;51.974;20.868;2024-01-27T05:36:02;13.65;;;2.40;;
38937;SDS011;24727;51.974;20.868;2024-01-27T05:38:28;10.25;;;2.05;;
38937;SDS011;24727;51.974;20.868;2024-01-27T05:40:55;10.32;;;2.33;;
38937;SDS011;24727;51.974;20.868;2024-01-27T05:43:21;8.32;;;1.65;;
38937;SDS011;24727;51.974;20.868;2024-01-27T05:45:47;11.23;;;1.85;;
38937;SDS011;24727;51.974;20.868;2024-01-27T05:48:14;10.18;;;1.95;;
38937;SDS011;24727;51.974;20.868;2024-01-27T05:50:41;13.60;;;2.13;;
38937;SDS011;24727;51.974;20.868;2024-01-27T05:53:08;9.52;;;2.25;;
38937;SDS011;24727;51.974;20.868;2024-01-27T05:55:33;11.88;;;2.03;;
38937;SDS011;24727;51.974;20.868;2024-01-27T05:57:59;12.90;;;2.65;;
38937;SDS011;24727;51.974;20.868;2024-01-27T06:00:25;11.23;;;2.28;;
38937;SDS011;24727;51.974;20.868;2024-01-27T06:02:51;8.23;;;2.30;;
38937;SDS011;24727;51.974;20.868;2024-01-27T06:05:17;13.15;;;4.05;;
38937;SDS011;24727;51.974;20.868;2024-01-27T06:07:43;15.45;;;2.95;;
38937;SDS011;24727;51.974;20.868;2024-01-27T06:10:10;11.07;;;3.17;;
38937;SDS011;24727;51.974;20.868;2024-01-27T06:12:37;13.30;;;3.47;;
38937;SDS011;24727;51.974;20.868;2024-01-27T06:15:03;8.80;;;2.22;;
38937;SDS011;24727;51.974;20.868;2024-01-27T06:17:31;12.50;;;3.20;;
38937;SDS011;24727;51.974;20.868;2024-01-27T06:19:56;12.32;;;3.03;;
38937;SDS011;24727;51.974;20.868;2024-01-27T06:22:22;12.63;;;3.08;;
38937;SDS011;24727;51.974;20.868;2024-01-27T06:24:48;14.70;;;3.20;;
38937;SDS011;24727;51.974;20.868;2024-01-27T06:27:14;14.27;;;2.88;;
38937;SDS011;24727;51.974;20.868;2024-01-27T06:29:40;11.15;;;2.55;;
38937;SDS011;24727;51.974;20.868;2024-01-27T06:32:07;14.50;;;2.45;;
38937;SDS011;24727;51.974;20.868;2024-01-27T06:34:33;11.82;;;1.83;;
38937;SDS011;24727;51.974;20.868;2024-01-27T06:36:58;18.70;;;3.20;;
38937;SDS011;24727;51.974;20.868;2024-01-27T06:39:24;11.90;;;3.22;;
38937;SDS011;24727;51.974;20.868;2024-01-27T06:41:51;16.35;;;3.10;;
38937;SDS011;24727;51.974;20.868;2024-01-27T06:44:17;6.40;;;1.98;;
38937;SDS011;24727;51.974;20.868;2024-01-27T06:46:42;12.60;;;3.10;;
38937;SDS011;24727;51.974;20.868;2024-01-27T06:49:10;12.50;;;3.40;;
38937;SDS011;24727;51.974;20.868;2024-01-27T06:51:36;9.23;;;2.60;;
38937;SDS011;24727;51.974;20.868;2024-01-27T07:02:29;14.63;;;3.63;;
38937;SDS011;24727;51.974;20.868;2024-01-27T07:04:55;14.80;;;3.38;;
38937;SDS011;24727;51.974;20.868;2024-01-27T07:09:57;17.27;;;3.28;;
38937;SDS011;24727;51.974;20.868;2024-01-27T07:12:23;16.35;;;3.08;;
38937;SDS011;24727;51.974;20.868;2024-01-27T07:14:49;15.00;;;3.58;;
38937;SDS011;24727;51.974;20.868;2024-01-27T07:17:22;15.68;;;3.45;;
38937;SDS011;24727;51.974;20.868;2024-01-27T07:19:47;12.85;;;3.15;;
38937;SDS011;24727;51.974;20.868;2024-01-27T07:22:13;9.25;;;2.80;;
38937;SDS011;24727;51.974;20.868;2024-01-27T07:24:39;16.30;;;3.88;;
38937;SDS011;24727;51.974;20.868;2024-01-27T07:27:06;14.10;;;3.30;;
38937;SDS011;24727;51.974;20.868;2024-01-27T07:29:32;12.65;;;3.03;;
38937;SDS011;24727;51.974;20.868;2024-01-27T07:31:57;13.18;;;3.63;;
38937;SDS011;24727;51.974;20.868;2024-01-27T07:34:23;13.50;;;3.40;;
38937;SDS011;24727;51.974;20.868;2024-01-27T07:36:49;8.02;;;2.65;;
38937;SDS011;24727;51.974;20.868;2024-01-27T07:39:15;11.50;;;2.80;;
38937;SDS011;24727;51.974;20.868;2024-01-27T07:41:41;14.48;;;4.25;;
38937;SDS011;24727;51.974;20.868;2024-01-27T07:44:08;15.38;;;3.92;;
38937;SDS011;24727;51.974;20.868;2024-01-27T07:46:35;16.20;;;3.65;;
38937;SDS011;24727;51.974;20.868;2024-01-27T07:49:05;14.90;;;4.00;;
38937;SDS011;24727;51.974;20.868;2024-01-27T07:51:31;16.65;;;4.55;;
38937;SDS011;24727;51.974;20.868;2024-01-27T07:53:58;16.77;;;3.97;;
38937;SDS011;24727;51.974;20.868;2024-01-27T07:56:24;10.38;;;3.47;;
38937;SDS011;24727;51.974;20.868;2024-01-27T07:58:51;15.15;;;3.42;;
38937;SDS011;24727;51.974;20.868;2024-01-27T08:01:17;16.23;;;4.07;;
38937;SDS011;24727;51.974;20.868;2024-01-27T08:03:43;13.52;;;3.75;;
38937;SDS011;24727;51.974;20.868;2024-01-27T08:06:20;12.57;;;3.30;;
38937;SDS011;24727;51.974;20.868;2024-01-27T08:08:54;10.88;;;3.47;;
38937;SDS011;24727;51.974;20.868;2024-01-27T08:11:20;10.98;;;3.33;;
38937;SDS011;24727;51.974;20.868;2024-01-27T08:13:46;13.75;;;3.75;;
38937;SDS011;24727;51.974;20.868;2024-01-27T08:16:12;16.75;;;4.88;;
38937;SDS011;24727;51.974;20.868;2024-01-27T08:18:39;11.75;;;4.63;;
38937;SDS011;24727;51.974;20.868;2024-01-27T08:21:07;15.10;;;3.67;;
38937;SDS011;24727;51.974;20.868;2024-01-27T08:23:33;12.55;;;3.88;;
38937;SDS011;24727;51.974;20.868;2024-01-27T08:25:59;9.25;;;3.20;;
38937;SDS011;24727;51.974;20.868;2024-01-27T08:28:25;7.47;;;3.08;;
38937;SDS011;24727;51.974;20.868;2024-01-27T08:30:51;13.20;;;3.50;;
38937;SDS011;24727;51.974;20.868;2024-01-27T08:33:17;11.43;;;3.53;;
38937;SDS011;24727;51.974;20.868;2024-01-27T08:35:43;11.77;;;3.72;;
38937;SDS011;24727;51.974;20.868;2024-01-27T08:38:11;9.40;;;3.83;;
38937;SDS011;24727;51.974;20.868;2024-01-27T08:40:37;10.60;;;3.25;;
38937;SDS011;24727;51.974;20.868;2024-01-27T08:43:03;12.32;;;4.00;;
38937;SDS011;24727;51.974;20.868;2024-01-27T08:45:29;11.00;;;3.95;;
38937;SDS011;24727;51.974;20.868;2024-01-27T08:47:55;12.32;;;3.45;;
38937;SDS011;24727;51.974;20.868;2024-01-27T08:50:21;11.90;;;3.30;;
38937;SDS011;24727;51.974;20.868;2024-01-27T08:52:46;12.48;;;4.20;;
38937;SDS011;24727;51.974;20.868;2024-01-27T08:55:13;5.28;;;2.83;;
38937;SDS011;24727;51.974;20.868;2024-01-27T08:57:39;10.52;;;4.07;;
38937;SDS011;24727;51.974;20.868;2024-01-27T09:00:05;9.40;;;3.05;;
38937;SDS011;24727;51.974;20.868;2024-01-27T09:02:31;12.50;;;3.05;;
38937;SDS011;24727;51.974;20.868;2024-01-27T09:04:57;8.50;;;3.78;;
38937;SDS011;24727;51.974;20.868;2024-01-27T09:07:23;9.88;;;2.75;;
38937;SDS011;24727;51.974;20.868;2024-01-27T09:09:49;8.85;;;3.60;;
38937;SDS011;24727;51.974;20.868;2024-01-27T09:12:15;10.77;;;3.35;;
38937;SDS011;24727;51.974;20.868;2024-01-27T09:14:41;7.00;;;3.38;;
38937;SDS011;24727;51.974;20.868;2024-01-27T09:17:07;9.88;;;4.13;;
38937;SDS011;24727;51.974;20.868;2024-01-27T09:19:33;13.30;;;3.70;;
38937;SDS011;24727;51.974;20.868;2024-01-27T09:21:59;6.75;;;3.83;;
38937;SDS011;24727;51.974;20.868;2024-01-27T09:24:25;6.78;;;2.60;;
38937;SDS011;24727;51.974;20.868;2024-01-27T09:26:51;11.60;;;4.78;;
38937;SDS011;24727;51.974;20.868;2024-01-27T09:29:16;13.10;;;4.25;;
38937;SDS011;24727;51.974;20.868;2024-01-27T09:31:42;7.80;;;3.95;;
38937;SDS011;24727;51.974;20.868;2024-01-27T09:34:08;8.80;;;3.72;;
38937;SDS011;24727;51.974;20.868;2024-01-27T09:36:34;5.75;;;3.22;;
38937;SDS011;24727;51.974;20.868;2024-01-27T09:39:00;6.63;;;3.78;;
38937;SDS011;24727;51.974;20.868;2024-01-27T09:41:27;6.70;;;3.40;;
38937;SDS011;24727;51.974;20.868;2024-01-27T09:43:57;7.97;;;3.55;;
38937;SDS011;24727;51.974;20.868;2024-01-27T09:46:29;7.45;;;3.53;;
38937;SDS011;24727;51.974;20.868;2024-01-27T09:48:55;9.13;;;3.28;;
38937;SDS011;24727;51.974;20.868;2024-01-27T09:51:22;11.32;;;4.03;;
38937;SDS011;24727;51.974;20.868;2024-01-27T09:53:48;9.80;;;3.97;;
38937;SDS011;24727;51.974;20.868;2024-01-27T09:56:17;9.52;;;4.63;;
38937;SDS011;24727;51.974;20.868;2024-01-27T09:58:44;8.80;;;4.30;;
38937;SDS011;24727;51.974;20.868;2024-01-27T10:01:11;11.15;;;4.78;;
38937;SDS011;24727;51.974;20.868;2024-01-27T10:03:40;11.85;;;5.13;;
38937;SDS011;24727;51.974;20.868;2024-01-27T10:06:09;9.93;;;5.00;;
38937;SDS011;24727;51.974;20.868;2024-01-27T10:08:36;10.15;;;5.15;;
38937;SDS011;24727;51.974;20.868;2024-01-27T10:11:09;10.15;;;4.80;;
38937;SDS011;24727;51.974;20.868;2024-01-27T10:13:37;12.88;;;5.18;;
38937;SDS011;24727;51.974;20.868;2024-01-27T10:18:35;10.65;;;6.32;;
38937;SDS011;24727;51.974;20.868;2024-01-27T10:21:12;11.50;;;4.93;;
38937;SDS011;24727;51.974;20.868;2024-01-27T10:23:39;7.65;;;4.35;;
38937;SDS011;24727;51.974;20.868;2024-01-27T10:26:08;10.05;;;4.82;;
38937;SDS011;24727;51.974;20.868;2024-01-27T10:28:37;9.15;;;5.13;;
38937;SDS011;24727;51.974;20.868;2024-01-27T10:31:09;8.55;;;5.00;;
38937;SDS011;24727;51.974;20.868;2024-01-27T10:33:38;8.40;;;4.53;;
38937;SDS011;24727;51.974;20.868;2024-01-27T10:36:05;8.13;;;4.30;;
38937;SDS011;24727;51.974;20.868;2024-01-27T10:38:35;8.38;;;4.20;;
38937;SDS011;24727;51.974;20.868;2024-01-27T10:41:01;9.85;;;4.55;;
38937;SDS011;24727;51.974;20.868;2024-01-27T10:43:35;6.75;;;4.30;;
38937;SDS011;24727;51.974;20.868;2024-01-27T10:46:05;8.32;;;4.53;;
38937;SDS011;24727;51.974;20.868;2024-01-27T10:48:35;6.25;;;3.88;;
38937;SDS011;24727;51.974;20.868;2024-01-27T10:51:07;7.05;;;4.45;;
38937;SDS011;24727;51.974;20.868;2024-01-27T10:53:34;8.60;;;5.13;;
38937;SDS011;24727;51.974;20.868;2024-01-27T10:56:03;7.88;;;4.68;;
38937;SDS011;24727;51.974;20.868;2024-01-27T10:58:34;10.25;;;4.78;;
38937;SDS011;24727;51.974;20.868;2024-01-27T11:01:09;7.85;;;3.80;;
38937;SDS011;24727;51.974;20.868;2024-01-27T11:03:39;7.07;;;4.60;;
38937;SDS011;24727;51.974;20.868;2024-01-27T11:06:06;6.00;;;3.83;;
38937;SDS011;24727;51.974;20.868;2024-01-27T11:08:35;6.97;;;3.83;;
38937;SDS011;24727;51.974;20.868;2024-01-27T11:11:03;7.50;;;4.03;;
38937;SDS011;24727;51.974;20.868;2024-01-27T11:13:32;6.35;;;3.58;;
38937;SDS011;24727;51.974;20.868;2024-01-27T11:15:59;7.00;;;3.90;;
38937;SDS011;24727;51.974;20.868;2024-01-27T11:18:27;8.57;;;4.55;;
38937;SDS011;24727;51.974;20.868;2024-01-27T11:20:55;6.13;;;4.03;;
38937;SDS011;24727;51.974;20.868;2024-01-27T11:23:30;6.18;;;4.00;;
38937;SDS011;24727;51.974;20.868;2024-01-27T11:26:06;5.18;;;3.53;;
38937;SDS011;24727;51.974;20.868;2024-01-27T11:28:33;7.57;;;4.57;;
38937;SDS011;24727;51.974;20.868;2024-01-27T11:31:04;5.05;;;3.95;;
38937;SDS011;24727;51.974;20.868;2024-01-27T11:33:31;4.63;;;2.70;;
38937;SDS011;24727;51.974;20.868;2024-01-27T11:36:01;7.10;;;3.70;;
38937;SDS011;24727;51.974;20.868;2024-01-27T11:38:31;7.70;;;4.20;;
38937;SDS011;24727;51.974;20.868;2024-01-27T11:40:57;6.07;;;3.10;;
38937;SDS011;24727;51.974;20.868;2024-01-27T11:43:26;4.40;;;2.65;;
38937;SDS011;24727;51.974;20.868;2024-01-27T11:45:59;3.97;;;2.70;;
38937;SDS011;24727;51.974;20.868;2024-01-27T11:48:26;5.07;;;3.03;;
38937;SDS011;24727;51.974;20.868;2024-01-27T11:53:52;4.47;;;2.97;;
38937;SDS011;24727;51.974;20.868;2024-01-27T11:56:18;6.10;;;3.75;;
38937;SDS011;24727;51.974;20.868;2024-01-27T11:58:47;6.75;;;3.15;;
38937;SDS011;24727;51.974;20.868;2024-01-27T12:01:14;3.92;;;2.55;;
38937;SDS011;24727;51.974;20.868;2024-01-27T12:03:40;4.90;;;3.22;;
38937;SDS011;24727;51.974;20.868;2024-01-27T12:06:07;4.70;;;3.35;;
38937;SDS011;24727;51.974;20.868;2024-01-27T12:08:35;6.50;;;3.45;;
38937;SDS011;24727;51.974;20.868;2024-01-27T12:11:01;6.00;;;3.72;;
38937;SDS011;24727;51.974;20.868;2024-01-27T12:13:27;5.68;;;4.13;;
38937;SDS011;24727;51.974;20.868;2024-01-27T12:15:53;4.38;;;2.85;;
38937;SDS011;24727;51.974;20.868;2024-01-27T12:18:19;5.63;;;3.55;;
38937;SDS011;24727;51.974;20.868;2024-01-27T12:20:45;6.05;;;4.13;;
38937;SDS011;24727;51.974;20.868;2024-01-27T12:23:11;5.80;;;3.63;;
38937;SDS011;24727;51.974;20.868;2024-01-27T12:25:37;4.75;;;3.75;;
38937;SDS011;24727;51.974;20.868;2024-01-27T12:28:03;4.93;;;3.45;;
38937;SDS011;24727;51.974;20.868;2024-01-27T12:30:33;4.70;;;3.45;;
38937;SDS011;24727;51.974;20.868;2024-01-27T12:32:59;3.58;;;3.22;;
38937;SDS011;24727;51.974;20.868;2024-01-27T12:35:26;4.82;;;3.55;;
38937;SDS011;24727;51.974;20.868;2024-01-27T12:37:54;6.03;;;4.10;;
38937;SDS011;24727;51.974;20.868;2024-01-27T12:40:21;4.65;;;3.65;;
38937;SDS011;24727;51.974;20.868;2024-01-27T12:42:47;4.50;;;3.65;;
38937;SDS011;24727;51.974;20.868;2024-01-27T12:45:13;5.32;;;4.43;;
38937;SDS011;24727;51.974;20.868;2024-01-27T12:47:39;5.03;;;3.55;;
38937;SDS011;24727;51.974;20.868;2024-01-27T12:50:06;6.22;;;3.30;;
38937;SDS011;24727;51.974;20.868;2024-01-27T12:52:32;5.28;;;3.63;;
38937;SDS011;24727;51.974;20.868;2024-01-27T12:54:58;6.38;;;4.40;;
38937;SDS011;24727;51.974;20.868;2024-01-27T12:57:24;5.80;;;4.03;;
38937;SDS011;24727;51.974;20.868;2024-01-27T12:59:50;7.45;;;3.70;;
38937;SDS011;24727;51.974;20.868;2024-01-27T13:02:16;7.45;;;4.82;;
38937;SDS011;24727;51.974;20.868;2024-01-27T13:04:42;4.95;;;3.42;;
38937;SDS011;24727;51.974;20.868;2024-01-27T13:07:08;6.53;;;3.83;;
38937;SDS011;24727;51.974;20.868;2024-01-27T13:09:35;7.03;;;3.75;;
38937;SDS011;24727;51.974;20.868;2024-01-27T13:12:02;7.70;;;3.97;;
38937;SDS011;24727;51.974;20.868;2024-01-27T13:14:28;5.55;;;3.67;;
38937;SDS011;24727;51.974;20.868;2024-01-27T13:16:55;8.73;;;4.10;;
38937;SDS011;24727;51.974;20.868;2024-01-27T13:19:24;4.95;;;3.30;;
38937;SDS011;24727;51.974;20.868;2024-01-27T13:21:52;5.97;;;3.67;;
38937;SDS011;24727;51.974;20.868;2024-01-27T13:24:18;6.97;;;4.10;;
38937;SDS011;24727;51.974;20.868;2024-01-27T13:26:45;8.50;;;4.45;;
38937;SDS011;24727;51.974;20.868;2024-01-27T13:29:11;5.68;;;3.80;;
38937;SDS011;24727;51.974;20.868;2024-01-27T13:31:37;8.23;;;4.90;;
38937;SDS011;24727;51.974;20.868;2024-01-27T13:34:03;14.02;;;5.80;;
38937;SDS011;24727;51.974;20.868;2024-01-27T13:36:30;12.18;;;4.78;;
38937;SDS011;24727;51.974;20.868;2024-01-27T13:38:56;13.27;;;6.13;;
38937;SDS011;24727;51.974;20.868;2024-01-27T13:41:23;11.55;;;5.10;;
38937;SDS011;24727;51.974;20.868;2024-01-27T13:43:49;10.35;;;5.63;;
38937;SDS011;24727;51.974;20.868;2024-01-27T13:46:15;8.65;;;4.97;;
38937;SDS011;24727;51.974;20.868;2024-01-27T13:48:41;7.80;;;4.85;;
38937;SDS011;24727;51.974;20.868;2024-01-27T13:51:07;5.07;;;3.60;;
38937;SDS011;24727;51.974;20.868;2024-01-27T13:53:32;8.88;;;4.15;;
38937;SDS011;24727;51.974;20.868;2024-01-27T13:55:58;4.72;;;3.40;;
38937;SDS011;24727;51.974;20.868;2024-01-27T13:58:25;6.65;;;3.53;;
38937;SDS011;24727;51.974;20.868;2024-01-27T14:00:51;5.90;;;4.30;;
38937;SDS011;24727;51.974;20.868;2024-01-27T14:03:17;6.68;;;4.65;;
38937;SDS011;24727;51.974;20.868;2024-01-27T14:05:43;4.45;;;3.42;;
38937;SDS011;24727;51.974;20.868;2024-01-27T14:08:11;4.57;;;3.13;;
38937;SDS011;24727;51.974;20.868;2024-01-27T14:10:37;4.60;;;3.20;;
38937;SDS011;24727;51.974;20.868;2024-01-27T14:13:04;4.78;;;3.17;;
38937;SDS011;24727;51.974;20.868;2024-01-27T14:15:34;4.65;;;3.22;;
38937;SDS011;24727;51.974;20.868;2024-01-27T14:18:01;4.68;;;3.10;;
38937;SDS011;24727;51.974;20.868;2024-01-27T14:20:27;5.07;;;3.40;;
38937;SDS011;24727;51.974;20.868;2024-01-27T14:22:57;7.15;;;3.47;;
38937;SDS011;24727;51.974;20.868;2024-01-27T14:25:23;4.15;;;3.08;;
38937;SDS011;24727;51.974;20.868;2024-01-27T14:27:49;6.10;;;3.75;;
38937;SDS011;24727;51.974;20.868;2024-01-27T14:30:15;7.45;;;4.72;;
38937;SDS011;24727;51.974;20.868;2024-01-27T14:32:41;4.72;;;3.78;;
38937;SDS011;24727;51.974;20.868;2024-01-27T14:35:07;9.40;;;5.43;;
38937;SDS011;24727;51.974;20.868;2024-01-27T14:37:33;11.50;;;5.78;;
38937;SDS011;24727;51.974;20.868;2024-01-27T14:39:59;6.63;;;4.22;;
38937;SDS011;24727;51.974;20.868;2024-01-27T14:42:25;9.20;;;5.90;;